Airfield :
LOGIN :

Register | Disclaimer

   EN    FR    IT 

 










Legend :    VFR   Marginal VFR   IFR   Intensive IFR   Very Intensive IFR
Visi :
Ceiling :
>= 8 km
>= 3000ft
5 to 8 km
1000 to 3000 ft
1500m to 5 km
500 to 1000 ft
800 to 1500m
200 to 500 ft
< 800m
< 200 ft
Symbols :   Thunderstorms  Fog  Heavy snow  Heavy precipitations  Wind > 20 kt
SIGMETs :     Misc.  Thunderstorms  Icing  Turbulence  Mountain Waves  Volcanic Ashes






- Airport Elevation : 38 ft
- IATA code : TRE


EGPU - Tiree

CURRENT METAR :
  • 140550Z AUTO 02017KT 9999 SCT027/// 05/02 Q1007

EXPIRED METARs :
  • 140520Z AUTO 03016KT 9999 SCT027/// 05/01 Q1006
  • 140450Z AUTO 03016KT 9999 SCT029/// 05/01 Q1006
  • 140420Z AUTO 04014KT 9999 SCT031/// 04/M00 Q1005
  • 140350Z AUTO 04011KT 9999 SCT030/// 04/01 Q1005
  • 140320Z AUTO 05010KT 9999 FEW028/// 04/01 Q1004

TAF TAF EGPU
Valid from the 14 at 06:00 until the 14 at 15:00 UTC


140501Z 1406/1415 03012KT 9999 SCT030
PROB30
TEMPO 1406/1415 7000 SHRA BKN014
TEMPO 1409/1415 03020G30KT



MET'MAP, your aeronautical weather chart ! - Copyright ORBIFLY December 2007 - Disclaimer

ORBIFLY MET'MAP TEAM :

Programming & Development : Alexandra Zaïnal
Concept & Development : Baudouin d'Aumeries
Co-Development & Prog : Marc-Olivier Méhu
Technical & hardware support : Manuel Goepfert

Contact : metmap@orbifly.com




SOURCES & CREDITS :

   NOAA